Time;durP1;ratioP1;P1;durP2;ratioP2;P2;SDS_P1;SDS_P2;PMS_P1;PMS_P2;Temp;Humidity;BMP_temperature;BMP_pressure;BME280_temperature;BME280_humidity;BME280_pressure;Samples;Min_cycle;Max_cycle;Signal;HPM_P1;HPM_P2
2024/03/25 00:00:13;;;;;;;7.40;4.07;;;2.50;99.90;;;;;;5039554;28;20685;-62
2024/03/25 00:02:39;;;;;;;6.33;2.80;;;2.50;99.90;;;;;;5044025;28;20519;-62
2024/03/25 00:05:07;;;;;;;7.23;3.80;;;2.50;99.90;;;;;;5025637;28;20421;-61
2024/03/25 00:07:33;;;;;;;7.17;3.73;;;2.50;99.90;;;;;;5040802;28;20477;-62
2024/03/25 00:09:59;;;;;;;6.23;3.93;;;2.50;99.90;;;;;;5041225;28;20462;-62
2024/03/25 00:12:26;;;;;;;7.87;3.37;;;2.50;99.90;;;;;;5042937;28;20455;-61
2024/03/25 00:14:51;;;;;;;4.10;3.70;;;2.50;99.90;;;;;;5045246;28;20186;-61
2024/03/25 00:17:17;;;;;;;5.80;3.30;;;2.40;99.90;;;;;;5040678;28;20544;-59
2024/03/25 00:19:48;;;;;;;8.00;3.60;;;2.40;99.90;;;;;;5041244;28;20207;-62
2024/03/25 00:22:14;;;;;;;4.17;3.30;;;2.40;99.90;;;;;;5026198;28;20657;-61
2024/03/25 00:24:39;;;;;;;5.83;2.80;;;2.30;99.90;;;;;;5039867;28;20444;-61
2024/03/25 00:27:05;;;;;;;8.20;5.10;;;2.30;99.90;;;;;;5040511;28;20198;-61
2024/03/25 00:29:30;;;;;;;8.57;5.03;;;2.30;99.90;;;;;;5042964;28;20180;-62
2024/03/25 00:31:56;;;;;;;6.97;4.00;;;2.30;99.90;;;;;;5025990;28;20213;-62
2024/03/25 00:34:22;;;;;;;7.97;3.63;;;2.30;99.90;;;;;;5024399;28;20198;-61
2024/03/25 00:36:48;;;;;;;7.67;3.80;;;2.20;99.90;;;;;;5037441;28;20676;-63
2024/03/25 00:39:13;;;;;;;3.33;3.03;;;2.20;99.90;;;;;;5036619;28;20464;-63
2024/03/25 00:41:39;;;;;;;3.07;2.30;;;2.10;99.90;;;;;;5021233;28;20253;-62
2024/03/25 00:44:04;;;;;;;3.23;2.90;;;2.10;99.90;;;;;;5037287;28;20190;-61
2024/03/25 00:46:30;;;;;;;8.30;3.10;;;2.10;99.90;;;;;;5038682;28;20188;-62
2024/03/25 00:48:56;;;;;;;4.77;3.20;;;2.00;99.90;;;;;;5037257;28;20266;-62
2024/03/25 00:51:22;;;;;;;6.43;4.00;;;2.00;99.90;;;;;;5036855;28;20193;-62
2024/03/25 00:53:47;;;;;;;7.03;3.43;;;2.00;99.90;;;;;;5039604;28;20315;-61
2024/03/25 00:56:13;;;;;;;5.53;2.93;;;2.00;99.90;;;;;;5036853;28;20192;-62
2024/03/25 00:58:38;;;;;;;4.40;3.00;;;2.00;99.90;;;;;;5037849;28;20199;-61
2024/03/25 01:01:04;;;;;;;7.63;3.70;;;2.10;99.90;;;;;;5041427;28;20229;-61
2024/03/25 01:03:30;;;;;;;6.17;3.60;;;2.10;99.90;;;;;;5040592;28;20236;-62
2024/03/25 01:05:55;;;;;;;4.63;3.10;;;2.10;99.90;;;;;;5034900;28;20635;-62
2024/03/25 01:08:21;;;;;;;5.00;3.50;;;2.10;99.90;;;;;;5037183;28;20212;-61
2024/03/25 01:10:46;;;;;;;4.27;3.00;;;2.10;99.90;;;;;;5035877;28;20192;-63
2024/03/25 01:13:12;;;;;;;5.00;3.27;;;2.00;99.90;;;;;;5028904;28;20301;-61
2024/03/25 01:15:37;;;;;;;5.70;3.20;;;2.00;99.90;;;;;;5030518;28;21067;-61
2024/03/25 01:18:03;;;;;;;3.80;3.10;;;2.00;99.90;;;;;;5020719;28;20195;-63
2024/03/25 01:20:29;;;;;;;5.20;3.40;;;2.00;99.90;;;;;;5016878;28;20243;-61
2024/03/25 01:22:54;;;;;;;4.40;2.70;;;1.90;99.90;;;;;;5037744;28;20196;-61
2024/03/25 01:25:20;;;;;;;4.87;2.80;;;1.90;99.90;;;;;;5033734;28;20781;-61
2024/03/25 01:27:46;;;;;;;14.83;2.93;;;1.90;99.90;;;;;;5016333;28;20294;-62
2024/03/25 01:30:12;;;;;;;21.63;3.80;;;1.80;99.90;;;;;;5013382;28;20269;-60
2024/03/25 01:32:37;;;;;;;9.90;5.00;;;1.70;99.90;;;;;;5018090;28;20425;-62
2024/03/25 01:35:03;;;;;;;15.63;3.80;;;1.70;99.90;;;;;;5034450;28;21074;-62
2024/03/25 01:37:29;;;;;;;6.60;4.27;;;1.70;99.90;;;;;;5034815;28;20205;-63
2024/03/25 01:39:54;;;;;;;6.27;4.33;;;1.60;99.90;;;;;;5037781;28;20272;-62
2024/03/25 01:42:20;;;;;;;13.30;4.40;;;1.60;99.90;;;;;;5042645;28;20213;-61
2024/03/25 01:44:48;;;;;;;8.90;4.23;;;1.60;99.90;;;;;;5017822;28;20286;-62
2024/03/25 01:47:14;;;;;;;6.60;4.37;;;1.60;99.90;;;;;;5033896;28;20460;-62
2024/03/25 01:49:39;;;;;;;6.23;4.07;;;1.60;99.90;;;;;;5034250;28;20424;-62
2024/03/25 01:52:06;;;;;;;12.00;6.53;;;1.60;99.90;;;;;;5018717;28;20194;-62
2024/03/25 01:54:32;;;;;;;6.47;4.83;;;1.60;99.90;;;;;;5039457;28;20194;-61
2024/03/25 01:56:58;;;;;;;7.90;5.17;;;1.60;99.90;;;;;;5034233;28;20445;-62
2024/03/25 01:59:25;;;;;;;8.77;5.33;;;1.60;99.90;;;;;;5035397;28;20456;-62
2024/03/25 02:01:51;;;;;;;8.47;4.47;;;1.60;99.90;;;;;;5034390;28;20432;-62
2024/03/25 02:04:17;;;;;;;11.03;5.67;;;1.60;99.90;;;;;;5036682;28;20570;-62
2024/03/25 02:06:44;;;;;;;9.43;5.10;;;1.60;99.90;;;;;;5034421;28;20430;-63
2024/03/25 02:09:12;;;;;;;8.50;5.00;;;1.70;99.90;;;;;;5034774;28;20344;-63
2024/03/25 02:11:38;;;;;;;16.10;4.70;;;1.70;99.90;;;;;;5018422;28;20460;-63
2024/03/25 02:14:05;;;;;;;11.63;5.90;;;1.70;99.90;;;;;;5034315;28;20437;-62
2024/03/25 02:16:31;;;;;;;6.70;4.40;;;1.70;99.90;;;;;;5015868;28;20591;-62
2024/03/25 02:18:56;;;;;;;8.67;5.10;;;1.70;99.90;;;;;;5035147;28;20548;-62
2024/03/25 02:21:22;;;;;;;4.57;4.10;;;1.80;99.90;;;;;;5034635;28;20568;-62
2024/03/25 02:23:50;;;;;;;12.80;5.00;;;1.70;99.90;;;;;;5036046;28;20266;-62
2024/03/25 02:26:16;;;;;;;9.77;5.70;;;1.80;99.90;;;;;;5036361;28;20706;-63
2024/03/25 02:28:42;;;;;;;7.10;5.27;;;1.80;99.90;;;;;;5036489;28;20490;-61
2024/03/25 02:31:07;;;;;;;6.80;5.23;;;1.80;99.90;;;;;;5033235;28;20193;-62
2024/03/25 02:33:33;;;;;;;4.83;4.23;;;1.90;99.90;;;;;;5037524;28;20187;-62
2024/03/25 02:35:58;;;;;;;7.47;4.40;;;1.90;99.90;;;;;;5032811;28;20797;-62
2024/03/25 02:38:24;;;;;;;5.03;4.00;;;1.90;99.90;;;;;;5018832;28;20277;-61
2024/03/25 02:40:50;;;;;;;6.70;4.70;;;1.90;99.90;;;;;;5034714;28;20199;-61
2024/03/25 02:43:19;;;;;;;7.17;4.60;;;2.00;99.90;;;;;;5017884;28;20207;-61
2024/03/25 02:45:45;;;;;;;7.83;4.57;;;2.00;99.90;;;;;;5036140;28;20439;-62
2024/03/25 02:48:10;;;;;;;8.33;4.87;;;2.00;99.90;;;;;;5033284;28;20458;-62
2024/03/25 02:50:36;;;;;;;4.63;3.87;;;2.00;99.90;;;;;;5033480;28;20197;-61
2024/03/25 02:53:02;;;;;;;5.30;4.47;;;2.00;99.90;;;;;;5034636;28;20184;-61
2024/03/25 02:55:27;;;;;;;7.23;5.10;;;2.00;99.90;;;;;;5042067;28;20182;-61
2024/03/25 02:57:53;;;;;;;6.43;4.60;;;2.00;99.90;;;;;;5042696;28;22261;-62
2024/03/25 03:00:18;;;;;;;6.07;4.27;;;2.00;99.90;;;;;;5040845;28;20207;-61
2024/03/25 03:02:44;;;;;;;6.90;5.00;;;2.00;99.90;;;;;;5043743;28;20262;-62
2024/03/25 03:05:10;;;;;;;9.00;4.60;;;2.00;99.90;;;;;;5040789;28;20177;-62
2024/03/25 03:07:35;;;;;;;6.57;4.70;;;2.00;99.90;;;;;;5042249;28;20662;-63
2024/03/25 03:10:01;;;;;;;8.13;4.90;;;2.00;99.90;;;;;;5048191;28;20188;-62
2024/03/25 03:12:26;;;;;;;6.60;4.90;;;2.00;99.90;;;;;;5045126;28;20183;-62
2024/03/25 03:14:52;;;;;;;7.00;4.70;;;2.00;99.90;;;;;;5046896;28;20186;-63
2024/03/25 03:17:18;;;;;;;8.03;4.70;;;1.90;99.90;;;;;;5039235;28;20214;-63
2024/03/25 03:19:43;;;;;;;13.43;5.40;;;1.90;99.90;;;;;;5024942;28;20253;-62
2024/03/25 03:22:09;;;;;;;9.70;5.47;;;1.90;99.90;;;;;;5048617;28;20178;-62
2024/03/25 03:24:34;;;;;;;7.80;4.87;;;1.80;99.90;;;;;;5029941;28;20175;-62
2024/03/25 03:27:00;;;;;;;6.80;5.40;;;1.80;99.90;;;;;;5035622;28;20211;-63
2024/03/25 03:29:26;;;;;;;7.77;5.57;;;1.80;99.90;;;;;;5043803;28;20841;-62
2024/03/25 03:31:51;;;;;;;9.60;5.40;;;1.80;99.90;;;;;;5027003;28;20187;-62
2024/03/25 03:34:17;;;;;;;22.97;6.00;;;1.80;99.90;;;;;;5044319;28;20213;-62
2024/03/25 03:36:42;;;;;;;11.50;5.00;;;1.80;99.90;;;;;;5043122;28;20184;-63
2024/03/25 03:39:11;;;;;;;15.40;6.43;;;1.70;99.90;;;;;;5045353;28;20266;-61
2024/03/25 03:41:36;;;;;;;10.17;5.83;;;1.70;99.90;;;;;;5047381;28;20179;-61
2024/03/25 03:44:02;;;;;;;9.80;7.07;;;1.70;99.90;;;;;;5041191;28;20432;-61
2024/03/25 03:46:28;;;;;;;8.70;5.83;;;1.70;99.90;;;;;;5047008;28;20260;-60
2024/03/25 03:48:53;;;;;;;12.03;6.00;;;1.70;99.90;;;;;;5040187;28;20543;-61
2024/03/25 03:51:19;;;;;;;12.07;6.13;;;1.80;99.90;;;;;;5042553;28;20175;-62
2024/03/25 03:53:45;;;;;;;13.77;6.83;;;1.80;99.90;;;;;;5039629;28;20629;-62
2024/03/25 03:56:10;;;;;;;10.17;6.00;;;1.80;99.90;;;;;;5045161;28;20190;-61
2024/03/25 03:58:36;;;;;;;10.57;6.40;;;1.80;99.90;;;;;;5040453;28;20218;-61
2024/03/25 04:01:02;;;;;;;11.73;6.30;;;1.80;99.90;;;;;;5043033;28;20950;-61
2024/03/25 04:03:28;;;;;;;12.20;5.67;;;1.80;99.90;;;;;;5037318;28;20171;-62
2024/03/25 04:05:54;;;;;;;10.97;5.93;;;1.80;99.90;;;;;;5045780;28;20859;-61
2024/03/25 04:08:19;;;;;;;9.53;6.20;;;1.80;99.90;;;;;;5042897;28;20198;-62
2024/03/25 04:10:45;;;;;;;14.40;6.33;;;1.70;99.90;;;;;;5042222;28;20183;-61
2024/03/25 04:13:11;;;;;;;11.87;6.87;;;1.70;99.90;;;;;;5041186;28;20190;-61
2024/03/25 04:15:38;;;;;;;59.80;7.77;;;1.70;99.90;;;;;;5026025;28;20445;-61
2024/03/25 04:18:04;;;;;;;68.10;8.10;;;1.70;99.90;;;;;;5028250;28;20556;-62
2024/03/25 04:20:36;;;;;;;12.00;6.40;;;1.70;99.90;;;;;;5035744;28;20457;-61
2024/03/25 04:23:01;;;;;;;54.23;7.00;;;1.60;99.90;;;;;;5042741;28;20448;-62
2024/03/25 04:25:27;;;;;;;23.40;7.17;;;1.50;99.90;;;;;;5024872;28;20539;-61
2024/03/25 04:27:52;;;;;;;12.67;7.40;;;1.50;99.90;;;;;;5040722;28;20206;-62
2024/03/25 04:30:18;;;;;;;17.90;7.27;;;1.50;99.90;;;;;;5037523;28;20185;-61
2024/03/25 04:32:45;;;;;;;15.43;6.73;;;1.50;99.90;;;;;;5042234;28;20269;-60
2024/03/25 04:35:11;;;;;;;33.13;6.53;;;1.50;99.90;;;;;;5044233;28;20179;-61
2024/03/25 04:37:36;;;;;;;12.70;6.37;;;1.60;99.90;;;;;;5039602;28;20532;-61
2024/03/25 04:40:03;;;;;;;25.27;8.23;;;1.50;99.90;;;;;;5036602;28;20944;-61
2024/03/25 04:42:28;;;;;;;12.97;6.77;;;1.50;99.90;;;;;;5041723;28;20189;-61
2024/03/25 04:44:54;;;;;;;12.77;6.20;;;1.50;99.90;;;;;;5044986;28;20427;-62
2024/03/25 04:47:20;;;;;;;33.90;8.13;;;1.50;99.90;;;;;;5043314;28;20578;-58
2024/03/25 04:49:46;;;;;;;14.67;6.50;;;1.40;99.90;;;;;;5045933;28;20197;-61
2024/03/25 04:52:23;;;;;;;47.33;7.07;;;1.40;99.90;;;;;;5040080;28;20184;-61
2024/03/25 04:54:49;;;;;;;22.20;6.03;;;1.30;99.90;;;;;;5041511;28;21147;-62
2024/03/25 04:57:14;;;;;;;48.77;8.00;;;1.30;99.90;;;;;;5038754;28;20464;-62
2024/03/25 04:59:40;;;;;;;17.33;7.27;;;1.30;99.90;;;;;;5045527;28;20460;-61
2024/03/25 05:02:05;;;;;;;42.13;6.97;;;1.20;99.90;;;;;;5038758;28;20669;-62
2024/03/25 05:04:31;;;;;;;12.97;5.73;;;1.30;99.90;;;;;;5041296;28;20192;-60
2024/03/25 05:06:57;;;;;;;11.03;6.20;;;1.20;99.90;;;;;;5034461;28;20199;-61
2024/03/25 05:09:22;;;;;;;10.80;5.90;;;1.30;99.90;;;;;;5041889;28;20186;-60
2024/03/25 05:11:48;;;;;;;16.23;6.17;;;1.30;99.90;;;;;;5041540;28;20640;-63
2024/03/25 05:14:13;;;;;;;16.13;6.93;;;1.40;99.90;;;;;;5042139;28;20234;-62
2024/03/25 05:16:39;;;;;;;23.27;6.50;;;1.40;99.90;;;;;;5029408;28;20249;-64
2024/03/25 05:19:05;;;;;;;17.57;6.90;;;1.40;99.90;;;;;;5037487;28;20195;-63
2024/03/25 05:21:31;;;;;;;11.07;5.40;;;1.40;99.90;;;;;;5044581;28;20175;-63
2024/03/25 05:23:56;;;;;;;18.00;6.83;;;1.30;99.90;;;;;;5036984;28;20254;-63
2024/03/25 05:26:22;;;;;;;27.77;8.00;;;1.30;99.90;;;;;;5040065;28;20511;-63
2024/03/25 05:28:55;;;;;;;23.23;7.70;;;1.30;99.90;;;;;;5036813;28;20210;-63
2024/03/25 05:31:21;;;;;;;23.60;7.10;;;1.30;99.90;;;;;;5030597;28;20202;-64
2024/03/25 05:33:47;;;;;;;18.13;7.73;;;1.20;99.90;;;;;;5034239;28;20464;-64
2024/03/25 05:36:13;;;;;;;31.13;8.53;;;1.20;99.90;;;;;;5035885;28;20765;-64
2024/03/25 05:38:39;;;;;;;62.00;9.27;;;1.20;99.90;;;;;;5032848;28;20684;-63
2024/03/25 05:41:05;;;;;;;18.17;7.87;;;1.20;99.90;;;;;;5040858;28;20468;-63
2024/03/25 05:43:30;;;;;;;21.90;9.20;;;1.20;99.90;;;;;;5027482;28;20816;-63
2024/03/25 05:45:57;;;;;;;16.33;9.00;;;1.20;99.90;;;;;;5037290;28;20253;-63
2024/03/25 05:48:24;;;;;;;22.00;8.30;;;1.20;99.90;;;;;;5041887;28;20198;-64
2024/03/25 05:51:05;;;;;;;19.30;8.77;;;1.30;99.90;;;;;;5039089;28;20465;-64
2024/03/25 05:53:30;;;;;;;16.43;8.57;;;1.30;99.90;;;;;;5036854;28;20507;-64
2024/03/25 05:55:56;;;;;;;19.37;9.03;;;1.30;99.90;;;;;;5042779;28;20413;-64
2024/03/25 05:58:22;;;;;;;22.47;8.63;;;1.30;99.90;;;;;;5017684;28;20205;-64
2024/03/25 06:00:48;;;;;;;17.47;8.10;;;1.30;99.90;;;;;;5040359;28;20687;-63
2024/03/25 06:03:14;;;;;;;23.97;8.10;;;1.30;99.90;;;;;;5044922;28;20424;-64
2024/03/25 06:05:40;;;;;;;22.07;8.90;;;1.30;99.90;;;;;;5041932;28;20480;-64
2024/03/25 06:08:07;;;;;;;17.50;8.17;;;1.30;99.90;;;;;;5039236;28;20457;-63
2024/03/25 06:10:37;;;;;;;18.40;8.33;;;1.40;99.90;;;;;;5039443;28;20182;-63
2024/03/25 06:13:02;;;;;;;16.83;8.33;;;1.40;99.90;;;;;;5039309;28;20429;-64
2024/03/25 06:15:28;;;;;;;18.87;8.00;;;1.40;99.90;;;;;;5046964;28;20804;-63
2024/03/25 06:17:54;;;;;;;13.50;8.17;;;1.40;99.90;;;;;;5036187;28;20639;-63
2024/03/25 06:20:20;;;;;;;27.93;6.40;;;1.40;99.90;;;;;;5038099;28;20540;-63
2024/03/25 06:22:45;;;;;;;14.83;7.30;;;1.40;99.90;;;;;;5039769;28;20601;-64
2024/03/25 06:25:11;;;;;;;12.23;6.67;;;1.40;99.90;;;;;;5046436;28;20515;-65
2024/03/25 06:27:36;;;;;;;15.10;7.50;;;1.40;99.90;;;;;;5041031;28;20212;-64
2024/03/25 06:34:14;;;;;;;18.93;8.50;;;1.40;99.90;;;;;;5040039;28;20178;-64
2024/03/25 06:35:38;;;;;;;17.50;7.90;;;1.40;99.90;;;;;;5048668;28;20408;-64
2024/03/25 06:38:04;;;;;;;16.93;8.10;;;1.50;99.90;;;;;;5048503;28;20436;-62
2024/03/25 06:40:30;;;;;;;21.30;7.10;;;1.50;99.90;;;;;;5024910;28;20342;-64
2024/03/25 06:42:56;;;;;;;18.73;8.57;;;1.50;99.90;;;;;;5044564;28;20447;-62
2024/03/25 06:45:22;;;;;;;19.03;9.10;;;1.50;99.90;;;;;;5045865;28;20443;-64
2024/03/25 06:47:47;;;;;;;17.03;8.40;;;1.50;99.90;;;;;;5046935;28;20440;-64
2024/03/25 06:50:13;;;;;;;22.70;8.10;;;1.60;99.90;;;;;;5036233;28;20176;-63
2024/03/25 06:52:38;;;;;;;16.63;8.67;;;1.60;99.90;;;;;;5045690;28;20179;-64
2024/03/25 06:55:04;;;;;;;19.23;8.47;;;1.60;99.90;;;;;;5044635;28;20529;-64
2024/03/25 06:57:30;;;;;;;28.27;10.03;;;1.60;99.90;;;;;;5039220;28;20200;-64
2024/03/25 06:59:57;;;;;;;18.47;9.10;;;1.60;99.90;;;;;;5040514;28;21053;-62
2024/03/25 07:02:23;;;;;;;19.40;10.10;;;1.60;99.90;;;;;;5040359;28;20171;-63
2024/03/25 07:04:49;;;;;;;17.80;9.87;;;1.60;99.90;;;;;;5043399;28;20478;-64
2024/03/25 07:07:14;;;;;;;19.97;10.43;;;1.60;99.90;;;;;;5041671;28;20194;-63
2024/03/25 07:09:40;;;;;;;24.27;10.17;;;1.70;99.90;;;;;;5040449;28;20175;-63
2024/03/25 07:12:06;;;;;;;24.00;8.67;;;1.70;99.90;;;;;;5035091;28;20186;-64
2024/03/25 07:14:32;;;;;;;33.13;9.43;;;1.70;99.90;;;;;;5046203;28;20932;-64
2024/03/25 07:16:58;;;;;;;30.57;9.97;;;1.70;99.90;;;;;;5040443;28;20467;-63
2024/03/25 07:19:24;;;;;;;39.73;10.30;;;1.70;99.90;;;;;;5041317;28;20805;-63
2024/03/25 07:21:49;;;;;;;56.87;10.00;;;1.80;99.90;;;;;;5040689;28;20179;-63
2024/03/25 07:24:15;;;;;;;22.87;8.33;;;1.70;99.90;;;;;;5047226;28;20250;-64
2024/03/25 07:26:41;;;;;;;15.60;7.73;;;1.70;99.90;;;;;;5044241;28;20179;-64
2024/03/25 07:29:07;;;;;;;19.70;7.60;;;1.80;99.90;;;;;;5025882;28;20185;-64
2024/03/25 07:31:32;;;;;;;19.87;8.43;;;1.80;99.90;;;;;;5021017;28;20179;-64
2024/03/25 07:33:58;;;;;;;21.80;8.13;;;1.80;99.90;;;;;;5044031;28;20432;-64
2024/03/25 07:36:24;;;;;;;25.53;7.70;;;1.90;99.90;;;;;;5040107;28;20176;-63
2024/03/25 07:38:50;;;;;;;60.57;11.00;;;1.90;99.90;;;;;;5039731;28;20256;-64
2024/03/25 07:41:15;;;;;;;13.23;7.60;;;1.80;99.90;;;;;;5042213;28;21694;-64
2024/03/25 07:43:41;;;;;;;23.97;9.10;;;1.80;99.90;;;;;;5040646;28;20220;-64
2024/03/25 07:46:06;;;;;;;26.73;8.87;;;1.80;99.90;;;;;;5047677;28;20762;-63
2024/03/25 07:48:32;;;;;;;23.80;8.30;;;1.80;99.90;;;;;;5043810;28;20199;-63
2024/03/25 07:50:58;;;;;;;15.17;7.57;;;1.90;99.90;;;;;;5038360;28;20543;-63
2024/03/25 07:53:23;;;;;;;23.07;9.60;;;1.90;99.90;;;;;;5042076;28;20193;-64
2024/03/25 07:55:51;;;;;;;22.33;8.07;;;1.90;99.90;;;;;;5043386;28;20213;-63
2024/03/25 07:58:16;;;;;;;12.73;7.77;;;2.00;99.90;;;;;;5042209;28;20687;-64
2024/03/25 08:00:42;;;;;;;19.03;7.50;;;2.00;99.90;;;;;;5041917;28;20503;-64
2024/03/25 08:03:08;;;;;;;24.60;7.50;;;2.00;99.90;;;;;;5022013;28;20733;-65
2024/03/25 08:05:33;;;;;;;17.00;6.30;;;2.00;99.90;;;;;;5040501;28;20175;-65
2024/03/25 08:07:59;;;;;;;9.53;6.00;;;2.00;99.90;;;;;;5019979;28;20568;-64
2024/03/25 08:10:24;;;;;;;19.67;7.00;;;2.10;99.90;;;;;;5043570;28;20176;-64
2024/03/25 08:12:50;;;;;;;8.40;6.07;;;2.10;99.90;;;;;;5040941;28;20657;-64
2024/03/25 08:15:16;;;;;;;6.87;5.00;;;2.10;99.90;;;;;;5035764;28;20321;-64
2024/03/25 08:17:41;;;;;;;11.47;6.73;;;2.20;99.90;;;;;;5044258;28;20288;-64
2024/03/25 08:20:08;;;;;;;23.37;7.13;;;2.30;99.90;;;;;;5040434;28;20668;-64
2024/03/25 08:22:34;;;;;;;11.60;6.40;;;2.30;99.90;;;;;;5038454;28;20273;-63
2024/03/25 08:24:59;;;;;;;12.77;7.53;;;2.40;99.90;;;;;;5046396;28;20859;-64
2024/03/25 08:27:25;;;;;;;12.87;7.07;;;2.40;99.90;;;;;;5043685;28;20192;-64
2024/03/25 08:29:53;;;;;;;11.90;6.47;;;2.50;99.90;;;;;;5042734;28;20692;-65
2024/03/25 08:32:19;;;;;;;9.00;5.67;;;2.60;99.90;;;;;;5026807;28;20751;-64
2024/03/25 08:34:45;;;;;;;11.33;6.03;;;2.70;99.90;;;;;;5044303;28;20436;-65
2024/03/25 08:37:10;;;;;;;11.80;6.73;;;2.80;99.90;;;;;;5043447;28;20217;-64
2024/03/25 08:39:36;;;;;;;12.30;6.47;;;2.80;99.90;;;;;;5025890;28;20461;-64
2024/03/25 08:42:02;;;;;;;10.60;6.50;;;2.90;99.90;;;;;;5047951;28;20330;-64
2024/03/25 08:44:27;;;;;;;10.23;6.97;;;3.00;99.90;;;;;;5044427;28;20206;-64
2024/03/25 08:46:53;;;;;;;10.77;7.40;;;3.10;99.90;;;;;;5042000;28;20201;-64
2024/03/25 08:49:18;;;;;;;13.73;7.43;;;3.20;99.90;;;;;;5026443;28;20174;-64
2024/03/25 08:51:44;;;;;;;14.13;7.50;;;3.40;99.90;;;;;;5037983;28;20183;-65
2024/03/25 08:54:09;;;;;;;11.90;7.57;;;3.50;99.90;;;;;;5032638;28;20185;-65
2024/03/25 08:56:35;;;;;;;10.00;6.00;;;3.50;99.90;;;;;;5037417;28;20190;-64
2024/03/25 08:59:01;;;;;;;10.77;6.80;;;3.60;99.90;;;;;;5045438;28;20267;-64
2024/03/25 09:01:27;;;;;;;9.60;6.50;;;3.70;99.90;;;;;;5040292;28;20312;-64
2024/03/25 09:03:52;;;;;;;9.80;6.40;;;3.90;99.90;;;;;;5042337;28;20178;-64
2024/03/25 09:06:18;;;;;;;8.60;5.97;;;4.10;99.90;;;;;;5037157;28;20848;-64
2024/03/25 09:11:27;;;;;;;11.27;5.60;;;4.40;99.90;;;;;;5040025;28;20186;-65
2024/03/25 09:13:53;;;;;;;10.90;6.90;;;4.60;99.90;;;;;;5039367;28;20436;-64
2024/03/25 09:16:19;;;;;;;9.13;6.00;;;4.80;99.90;;;;;;5044052;28;20663;-65
2024/03/25 09:18:45;;;;;;;9.20;5.40;;;4.90;99.90;;;;;;5043637;28;20195;-64
2024/03/25 09:21:11;;;;;;;9.40;6.70;;;5.00;99.90;;;;;;5040017;28;20259;-63
2024/03/25 09:23:36;;;;;;;9.93;6.13;;;5.10;99.90;;;;;;5046000;28;20767;-64
2024/03/25 09:26:02;;;;;;;12.73;6.10;;;5.30;99.90;;;;;;5040547;28;20202;-64
2024/03/25 09:28:27;;;;;;;8.90;5.80;;;5.40;99.90;;;;;;5043062;28;20205;-64
2024/03/25 09:30:53;;;;;;;8.97;6.30;;;5.50;99.90;;;;;;5044319;28;20190;-64
2024/03/25 09:33:19;;;;;;;7.73;5.80;;;5.60;99.90;;;;;;5017525;28;20176;-65
2024/03/25 09:35:45;;;;;;;7.80;5.97;;;5.80;99.90;;;;;;5045234;28;20236;-64
2024/03/25 09:38:10;;;;;;;10.70;5.40;;;5.90;99.90;;;;;;5033213;28;20192;-63
2024/03/25 09:40:40;;;;;;;5.83;4.53;;;6.20;99.90;;;;;;5025807;28;20206;-64
2024/03/25 09:43:15;;;;;;;10.27;5.10;;;6.40;99.90;;;;;;5038047;28;20175;-64
2024/03/25 09:45:42;;;;;;;8.83;5.23;;;6.60;99.90;;;;;;5045091;28;20428;-65
2024/03/25 09:48:08;;;;;;;8.60;4.90;;;6.50;94.80;;;;;;5043866;28;20435;-64
2024/03/25 09:50:35;;;;;;;6.33;4.80;;;6.40;92.50;;;;;;5035485;28;20445;-65
2024/03/25 09:53:01;;;;;;;6.30;4.37;;;6.30;83.30;;;;;;5024347;28;20426;-64
2024/03/25 09:55:26;;;;;;;8.20;4.67;;;6.20;81.10;;;;;;5040235;28;20430;-64
2024/03/25 09:57:53;;;;;;;4.87;3.63;;;6.20;85.10;;;;;;5040981;28;20338;-65
2024/03/25 10:00:19;;;;;;;6.20;4.20;;;6.20;90.40;;;;;;5045855;28;20195;-65
2024/03/25 10:02:45;;;;;;;6.43;3.50;;;6.40;92.60;;;;;;5045681;28;20419;-64
2024/03/25 10:05:11;;;;;;;9.20;3.90;;;6.70;88.30;;;;;;5043531;28;20433;-65
2024/03/25 10:07:36;;;;;;;6.77;3.50;;;7.00;86.30;;;;;;5027372;28;20515;-64
2024/03/25 10:10:06;;;;;;;5.17;3.30;;;7.40;81.70;;;;;;5045009;28;20171;-65
2024/03/25 10:12:32;;;;;;;5.50;2.90;;;7.50;72.20;;;;;;5041992;28;20646;-64
2024/03/25 10:14:58;;;;;;;5.00;3.03;;;7.60;70.30;;;;;;5030090;28;20425;-63
2024/03/25 10:17:24;;;;;;;6.53;3.80;;;7.70;69.40;;;;;;5040395;28;20635;-65
2024/03/25 10:19:50;;;;;;;6.03;3.10;;;7.90;68.90;;;;;;5043215;28;20946;-64
2024/03/25 10:22:16;;;;;;;8.47;2.90;;;8.10;68.60;;;;;;5041310;28;20175;-65
2024/03/25 10:24:43;;;;;;;5.33;2.40;;;8.30;67.40;;;;;;5049766;28;20171;-65
2024/03/25 10:27:22;;;;;;;3.00;2.23;;;8.50;65.00;;;;;;5042787;28;20481;-65
2024/03/25 10:29:51;;;;;;;7.90;2.83;;;8.60;61.00;;;;;;5045762;28;20417;-64
2024/03/25 10:32:17;;;;;;;4.93;2.67;;;8.80;59.70;;;;;;5040873;28;20488;-64
2024/03/25 10:34:43;;;;;;;3.23;2.23;;;8.90;57.50;;;;;;5043917;28;20570;-64
2024/03/25 10:37:10;;;;;;;9.67;2.20;;;9.00;56.40;;;;;;5045652;28;20203;-64
2024/03/25 10:39:43;;;;;;;6.30;2.07;;;9.10;54.90;;;;;;5040577;28;20206;-65
2024/03/25 10:42:13;;;;;;;5.33;2.03;;;9.20;53.40;;;;;;5046023;28;20433;-64
2024/03/25 10:44:39;;;;;;;7.07;2.13;;;9.30;52.70;;;;;;5044817;28;20438;-64
2024/03/25 10:47:06;;;;;;;3.73;2.10;;;9.40;52.20;;;;;;5047864;28;20437;-64
2024/03/25 10:49:53;;;;;;;10.53;2.17;;;9.50;52.20;;;;;;5044035;28;20462;-64
2024/03/25 10:52:21;;;;;;;5.23;2.20;;;9.60;51.70;;;;;;5045026;28;20405;-64
2024/03/25 10:54:47;;;;;;;3.20;2.40;;;9.70;51.60;;;;;;5035089;28;20808;-64
2024/03/25 10:57:13;;;;;;;3.80;2.30;;;9.80;51.10;;;;;;5045937;28;20433;-65
2024/03/25 10:59:42;;;;;;;6.00;2.70;;;9.90;51.10;;;;;;5046922;28;20465;-65
2024/03/25 11:02:09;;;;;;;4.67;2.20;;;10.00;50.10;;;;;;5046927;28;20409;-65
2024/03/25 11:04:35;;;;;;;2.63;2.00;;;10.10;49.50;;;;;;5038803;28;20516;-65
2024/03/25 11:07:12;;;;;;;3.67;2.10;;;10.20;49.40;;;;;;5047509;28;20459;-64
2024/03/25 11:09:38;;;;;;;6.27;2.53;;;10.30;48.90;;;;;;5038094;28;20956;-64
2024/03/25 11:12:04;;;;;;;3.57;2.00;;;10.30;48.60;;;;;;5043170;28;20472;-65
2024/03/25 11:14:32;;;;;;;4.30;2.00;;;10.40;48.60;;;;;;5042216;28;20418;-63
2024/03/25 11:16:59;;;;;;;2.90;1.93;;;10.50;48.00;;;;;;5024316;28;20527;-65
2024/03/25 11:19:29;;;;;;;2.93;1.90;;;10.50;48.00;;;;;;5038831;28;20448;-64
2024/03/25 11:22:07;;;;;;;2.97;2.20;;;10.60;47.30;;;;;;5046073;28;20414;-65
2024/03/25 11:24:36;;;;;;;3.17;2.10;;;10.70;47.00;;;;;;5039449;28;20442;-64
2024/03/25 11:27:02;;;;;;;5.90;2.30;;;10.90;47.70;;;;;;5039518;28;20549;-65
2024/03/25 11:29:28;;;;;;;3.00;2.50;;;11.00;47.40;;;;;;5032704;28;20521;-65
2024/03/25 11:31:53;;;;;;;3.50;2.30;;;11.20;47.00;;;;;;5034215;28;20246;-66
2024/03/25 11:34:20;;;;;;;5.20;2.17;;;11.30;47.50;;;;;;5037735;28;20602;-65
2024/03/25 11:36:47;;;;;;;5.90;3.03;;;11.30;46.60;;;;;;5040454;28;20607;-65
2024/03/25 11:39:13;;;;;;;3.47;2.50;;;11.30;47.20;;;;;;5040462;28;20532;-65
2024/03/25 11:41:45;;;;;;;6.83;2.73;;;11.30;47.50;;;;;;5039684;28;20896;-64
2024/03/25 11:44:14;;;;;;;8.43;2.00;;;11.50;48.10;;;;;;5042715;28;20184;-65
2024/03/25 11:46:40;;;;;;;3.23;2.23;;;11.50;47.30;;;;;;5026687;28;20517;-65
2024/03/25 11:49:19;;;;;;;2.20;1.97;;;11.70;47.10;;;;;;5039929;28;20421;-66
2024/03/25 11:51:46;;;;;;;3.67;2.23;;;11.90;46.70;;;;;;5042309;28;20441;-63
2024/03/25 11:54:12;;;;;;;6.50;2.20;;;12.10;46.10;;;;;;5041875;28;20457;-63
2024/03/25 11:56:38;;;;;;;5.33;1.97;;;12.30;45.90;;;;;;5042372;28;20463;-63
2024/03/25 11:59:04;;;;;;;6.23;2.27;;;12.40;45.40;;;;;;5045896;28;20477;-64
2024/03/25 12:01:33;;;;;;;2.43;1.83;;;12.50;42.50;;;;;;5038403;28;20470;-63
2024/03/25 12:04:16;;;;;;;2.30;1.87;;;12.60;41.70;;;;;;5044862;28;20263;-62
2024/03/25 12:06:41;;;;;;;3.60;2.00;;;12.70;43.00;;;;;;5043067;28;20487;-63
2024/03/25 12:11:52;;;;;;;2.60;1.90;;;13.20;43.50;;;;;;5044542;28;20199;-63
2024/03/25 12:14:18;;;;;;;3.17;1.70;;;13.40;43.70;;;;;;5041504;28;20425;-64
2024/03/25 12:16:44;;;;;;;4.33;2.00;;;13.50;43.00;;;;;;5042731;28;20437;-64
2024/03/25 12:19:10;;;;;;;10.00;2.20;;;13.50;41.00;;;;;;5043096;28;20413;-63
2024/03/25 12:21:37;;;;;;;4.07;1.90;;;13.50;41.20;;;;;;5025265;28;20928;-64
2024/03/25 12:24:03;;;;;;;3.80;1.97;;;13.70;41.80;;;;;;5038884;28;20429;-64
2024/03/25 12:26:31;;;;;;;4.93;1.90;;;13.70;41.20;;;;;;5041036;28;20414;-63
2024/03/25 12:28:58;;;;;;;3.07;2.10;;;13.90;41.30;;;;;;5038485;28;20296;-64
2024/03/25 12:31:24;;;;;;;1.90;1.70;;;14.00;41.70;;;;;;5042984;28;20811;-63
2024/03/25 12:33:49;;;;;;;2.33;2.07;;;14.10;42.10;;;;;;5044166;28;20471;-62
2024/03/25 12:36:15;;;;;;;3.93;2.10;;;14.20;41.90;;;;;;5042942;28;20646;-63
2024/03/25 12:38:40;;;;;;;2.00;1.50;;;14.20;41.20;;;;;;5040866;28;20222;-63
2024/03/25 12:41:08;;;;;;;2.93;1.83;;;14.30;40.70;;;;;;5041688;28;20203;-63
2024/03/25 12:43:35;;;;;;;1.90;1.70;;;14.30;41.70;;;;;;5046319;28;20597;-63
2024/03/25 12:46:05;;;;;;;2.60;2.00;;;14.40;40.50;;;;;;5039807;28;20502;-63
2024/03/25 12:48:30;;;;;;;3.47;2.00;;;14.50;40.70;;;;;;5039197;28;20462;-63
2024/03/25 12:50:56;;;;;;;2.60;1.77;;;14.60;40.70;;;;;;5044638;28;20807;-62
2024/03/25 12:53:22;;;;;;;2.83;2.10;;;14.60;38.40;;;;;;5039332;28;20187;-64